Time;durP1;ratioP1;P1;durP2;ratioP2;P2;SDS_P1;SDS_P2;PMS_P1;PMS_P2;Temp;Humidity;BMP_temperature;BMP_pressure;BME280_temperature;BME280_humidity;BME280_pressure;Samples;Min_cycle;Max_cycle;Signal;HPM_P1;HPM_P2
2021/07/13 00:02:01;;;;;;;5.05;3.50;;;;;;;;;;5135340;27;20027;-73
2021/07/13 00:04:27;;;;;;;5.03;3.55;;;;;;;;;;5134872;27;20027;-72
2021/07/13 00:06:53;;;;;;;5.82;3.50;;;;;;;;;;5135310;27;20023;-72
2021/07/13 00:09:20;;;;;;;5.13;3.42;;;;;;;;;;5134044;27;20077;-72
2021/07/13 00:11:47;;;;;;;6.82;2.97;;;;;;;;;;5135148;27;20029;-73
2021/07/13 00:14:13;;;;;;;8.35;3.13;;;;;;;;;;5134873;27;20077;-72
2021/07/13 00:16:41;;;;;;;3.25;2.80;;;;;;;;;;5134618;27;20394;-72
2021/07/13 00:19:07;;;;;;;8.70;3.40;;;;;;;;;;5134910;27;20019;-73
2021/07/13 00:21:33;;;;;;;4.80;3.03;;;;;;;;;;5134693;27;20065;-72
2021/07/13 00:23:59;;;;;;;5.88;3.30;;;;;;;;;;5134979;27;20051;-72
2021/07/13 00:26:26;;;;;;;5.93;3.30;;;;;;;;;;5135150;27;20427;-72
2021/07/13 00:28:52;;;;;;;4.75;3.00;;;;;;;;;;5134622;27;20050;-72
2021/07/13 00:31:18;;;;;;;6.55;3.13;;;;;;;;;;5134868;27;20030;-72
2021/07/13 00:33:44;;;;;;;3.30;3.00;;;;;;;;;;5134563;27;20019;-72
2021/07/13 00:36:10;;;;;;;5.32;3.47;;;;;;;;;;5134520;27;20087;-72
2021/07/13 00:38:36;;;;;;;5.05;3.15;;;;;;;;;;5134629;27;20020;-72
2021/07/13 00:41:02;;;;;;;4.70;3.20;;;;;;;;;;5134488;27;20054;-72
2021/07/13 00:43:29;;;;;;;3.75;2.58;;;;;;;;;;5134445;27;20463;-72
2021/07/13 00:45:55;;;;;;;7.28;2.80;;;;;;;;;;5134888;27;20379;-72
2021/07/13 00:48:24;;;;;;;7.47;2.90;;;;;;;;;;5134070;27;20034;-73
2021/07/13 00:50:51;;;;;;;4.03;3.20;;;;;;;;;;5134251;27;20023;-71
2021/07/13 00:53:18;;;;;;;5.38;2.75;;;;;;;;;;5134315;27;20102;-72
2021/07/13 00:55:44;;;;;;;7.28;3.10;;;;;;;;;;5133023;27;20031;-72
2021/07/13 00:58:10;;;;;;;5.68;3.28;;;;;;;;;;5132815;27;20061;-72
2021/07/13 01:00:36;;;;;;;5.20;3.00;;;;;;;;;;5131589;27;20054;-72
2021/07/13 01:03:03;;;;;;;3.58;2.83;;;;;;;;;;5131390;27;20106;-73
2021/07/13 01:05:34;;;;;;;8.50;2.78;;;;;;;;;;5133152;27;20098;-72
2021/07/13 01:08:00;;;;;;;9.35;3.35;;;;;;;;;;5134046;27;20122;-72
2021/07/13 01:10:44;;;;;;;6.72;2.85;;;;;;;;;;5133860;27;20051;-72
2021/07/13 01:13:29;;;;;;;5.13;2.85;;;;;;;;;;5133994;27;20027;-72
2021/07/13 01:16:04;;;;;;;7.20;3.58;;;;;;;;;;5133921;27;20047;-72
2021/07/13 01:18:33;;;;;;;5.68;2.90;;;;;;;;;;5134012;27;20022;-72
2021/07/13 01:20:59;;;;;;;17.52;3.33;;;;;;;;;;5133809;27;20106;-72
2021/07/13 01:23:27;;;;;;;10.43;3.13;;;;;;;;;;5133874;27;20066;-72
2021/07/13 01:26:02;;;;;;;3.90;2.72;;;;;;;;;;5133831;27;20027;-72
2021/07/13 01:28:29;;;;;;;3.55;2.85;;;;;;;;;;5133401;27;20379;-72
2021/07/13 01:30:58;;;;;;;4.07;2.92;;;;;;;;;;5133676;27;20047;-73
2021/07/13 01:33:25;;;;;;;5.78;3.10;;;;;;;;;;5133289;27;20550;-73
2021/07/13 01:35:57;;;;;;;5.25;2.90;;;;;;;;;;5133370;27;20023;-72
2021/07/13 01:38:26;;;;;;;4.22;2.88;;;;;;;;;;5133830;27;20031;-72
2021/07/13 01:40:55;;;;;;;5.40;3.70;;;;;;;;;;5133529;27;20049;-71
2021/07/13 01:43:22;;;;;;;8.57;3.20;;;;;;;;;;5133287;27;20106;-72
2021/07/13 01:45:48;;;;;;;7.75;3.33;;;;;;;;;;5133400;27;20030;-72
2021/07/13 01:48:14;;;;;;;7.80;3.40;;;;;;;;;;5133559;27;20115;-72
2021/07/13 01:50:43;;;;;;;5.38;3.05;;;;;;;;;;5133278;27;20421;-72
2021/07/13 01:53:10;;;;;;;4.95;3.20;;;;;;;;;;5132297;28;20114;-72
2021/07/13 01:55:39;;;;;;;6.60;3.40;;;;;;;;;;5133507;27;20114;-72
2021/07/13 01:58:05;;;;;;;4.90;3.10;;;;;;;;;;5133057;27;20075;-72
2021/07/13 02:00:32;;;;;;;4.05;3.15;;;;;;;;;;5136717;27;20027;-72
2021/07/13 02:02:59;;;;;;;3.75;3.20;;;;;;;;;;5137489;27;20019;-72
2021/07/13 02:05:27;;;;;;;5.63;2.90;;;;;;;;;;5137654;27;20026;-72
2021/07/13 02:07:55;;;;;;;7.03;3.22;;;;;;;;;;5137145;27;20045;-72
2021/07/13 02:10:21;;;;;;;8.98;3.80;;;;;;;;;;5137091;27;20416;-72
2021/07/13 02:12:47;;;;;;;3.70;3.03;;;;;;;;;;5137317;27;20038;-73
2021/07/13 02:15:13;;;;;;;6.93;3.22;;;;;;;;;;5137185;27;20047;-73
2021/07/13 02:17:39;;;;;;;6.15;3.28;;;;;;;;;;5135908;27;20526;-72
2021/07/13 02:20:09;;;;;;;8.25;3.40;;;;;;;;;;5137112;27;20027;-73
2021/07/13 02:22:37;;;;;;;6.43;3.15;;;;;;;;;;5137006;27;20027;-72
2021/07/13 02:25:04;;;;;;;5.40;3.20;;;;;;;;;;5136743;27;20051;-72
2021/07/13 02:27:31;;;;;;;7.65;3.42;;;;;;;;;;5136934;27;20027;-72
2021/07/13 02:30:00;;;;;;;6.43;3.25;;;;;;;;;;5137199;27;20054;-72
2021/07/13 02:32:47;;;;;;;6.03;3.30;;;;;;;;;;5136728;27;20024;-72
2021/07/13 02:35:16;;;;;;;4.72;3.40;;;;;;;;;;5125735;27;20090;-72
2021/07/13 02:37:45;;;;;;;3.67;3.05;;;;;;;;;;5136598;27;20019;-72
2021/07/13 02:40:12;;;;;;;5.85;3.13;;;;;;;;;;5136786;27;20037;-72
2021/07/13 02:42:38;;;;;;;5.63;3.60;;;;;;;;;;5136245;27;20028;-72
2021/07/13 02:45:06;;;;;;;9.27;3.67;;;;;;;;;;5136086;27;20019;-72
2021/07/13 02:47:32;;;;;;;7.55;3.72;;;;;;;;;;5136429;27;20027;-72
2021/07/13 02:50:00;;;;;;;5.35;3.17;;;;;;;;;;5136305;27;20106;-72
2021/07/13 02:52:28;;;;;;;5.95;3.67;;;;;;;;;;5136357;27;20020;-72
2021/07/13 02:54:59;;;;;;;13.30;3.60;;;;;;;;;;5135976;27;20035;-72
2021/07/13 02:57:27;;;;;;;5.53;3.08;;;;;;;;;;5136558;27;20098;-72
2021/07/13 02:59:53;;;;;;;5.18;3.05;;;;;;;;;;5136311;27;20413;-72
2021/07/13 03:02:21;;;;;;;10.13;3.25;;;;;;;;;;5136197;27;20062;-73
2021/07/13 03:04:47;;;;;;;6.13;3.28;;;;;;;;;;5135908;27;20064;-72
2021/07/13 03:07:14;;;;;;;4.45;3.38;;;;;;;;;;5136207;27;20487;-72
2021/07/13 03:09:40;;;;;;;4.50;3.15;;;;;;;;;;5135643;27;20038;-72
2021/07/13 03:12:08;;;;;;;7.00;3.38;;;;;;;;;;5136041;27;20445;-72
2021/07/13 03:14:34;;;;;;;6.38;3.50;;;;;;;;;;5136051;27;20121;-72
2021/07/13 03:17:00;;;;;;;3.47;3.03;;;;;;;;;;5136128;27;20079;-72
2021/07/13 03:19:26;;;;;;;4.43;3.35;;;;;;;;;;5135910;27;20030;-72
2021/07/13 03:21:54;;;;;;;6.68;3.45;;;;;;;;;;5134832;27;20031;-71
2021/07/13 03:24:21;;;;;;;6.22;3.20;;;;;;;;;;5136031;27;20023;-72
2021/07/13 03:26:47;;;;;;;4.82;3.70;;;;;;;;;;5135925;27;20463;-72
2021/07/13 03:29:14;;;;;;;7.43;3.50;;;;;;;;;;5135962;27;20475;-72
2021/07/13 03:31:41;;;;;;;3.78;2.80;;;;;;;;;;5135876;27;20111;-72
2021/07/13 03:34:07;;;;;;;4.70;3.30;;;;;;;;;;5135655;27;20027;-72
2021/07/13 03:36:34;;;;;;;7.72;3.00;;;;;;;;;;5135839;27;20379;-73
2021/07/13 03:39:01;;;;;;;5.03;3.08;;;;;;;;;;5136011;27;20023;-72
2021/07/13 03:41:28;;;;;;;9.90;3.38;;;;;;;;;;5135827;27;20033;-72
2021/07/13 03:43:55;;;;;;;6.85;3.60;;;;;;;;;;5135509;27;20023;-72
2021/07/13 03:46:24;;;;;;;4.25;3.00;;;;;;;;;;5135636;27;20110;-71
2021/07/13 03:48:50;;;;;;;5.13;2.97;;;;;;;;;;5135517;27;20047;-71
2021/07/13 03:51:22;;;;;;;9.45;3.30;;;;;;;;;;5135585;27;20019;-72
2021/07/13 03:53:50;;;;;;;5.03;3.17;;;;;;;;;;5135580;27;20057;-72
2021/07/13 03:56:16;;;;;;;4.10;3.10;;;;;;;;;;5135278;27;20041;-72
2021/07/13 03:58:42;;;;;;;6.60;3.30;;;;;;;;;;5135368;27;20420;-72
2021/07/13 04:01:08;;;;;;;7.65;3.15;;;;;;;;;;5135415;27;20046;-73
2021/07/13 04:03:34;;;;;;;6.35;3.00;;;;;;;;;;5135208;27;20023;-73
2021/07/13 04:06:00;;;;;;;6.85;3.47;;;;;;;;;;5135333;27;20031;-73
2021/07/13 04:08:26;;;;;;;4.75;2.70;;;;;;;;;;5135315;27;20016;-72
2021/07/13 04:10:52;;;;;;;8.82;3.03;;;;;;;;;;5135221;27;20038;-72
2021/07/13 04:13:19;;;;;;;7.00;2.70;;;;;;;;;;5135048;27;20375;-72
2021/07/13 04:15:45;;;;;;;4.63;2.95;;;;;;;;;;5134865;27;20051;-72
2021/07/13 04:18:11;;;;;;;3.53;2.72;;;;;;;;;;5135047;27;20106;-73
2021/07/13 04:20:37;;;;;;;7.93;3.42;;;;;;;;;;5134814;27;20039;-72
2021/07/13 04:23:03;;;;;;;9.80;3.20;;;;;;;;;;5134243;27;20019;-72
2021/07/13 04:25:29;;;;;;;7.57;3.42;;;;;;;;;;5134951;27;20031;-72
2021/07/13 04:27:57;;;;;;;6.43;3.47;;;;;;;;;;5134977;27;20080;-73
2021/07/13 04:30:23;;;;;;;5.60;3.17;;;;;;;;;;5134880;27;20408;-72
2021/07/13 04:32:49;;;;;;;8.25;2.85;;;;;;;;;;5134598;27;20007;-72
2021/07/13 04:35:15;;;;;;;5.47;2.75;;;;;;;;;;5134757;27;20130;-72
2021/07/13 04:37:41;;;;;;;4.55;2.80;;;;;;;;;;5134591;27;20471;-72
2021/07/13 04:40:07;;;;;;;3.83;3.10;;;;;;;;;;5134584;27;20531;-73
2021/07/13 04:42:34;;;;;;;10.93;3.08;;;;;;;;;;5134357;27;20379;-71
2021/07/13 04:45:00;;;;;;;8.13;3.25;;;;;;;;;;5133990;27;20383;-72
2021/07/13 04:47:26;;;;;;;4.20;2.72;;;;;;;;;;5134450;27;20030;-73
2021/07/13 04:49:54;;;;;;;6.05;3.30;;;;;;;;;;5134690;27;20023;-72
2021/07/13 04:52:20;;;;;;;6.45;3.17;;;;;;;;;;5134208;27;20042;-73
2021/07/13 04:54:46;;;;;;;6.10;3.30;;;;;;;;;;5133910;27;20119;-72
2021/07/13 04:57:12;;;;;;;6.28;3.90;;;;;;;;;;5134572;27;20055;-73
2021/07/13 04:59:41;;;;;;;10.50;3.70;;;;;;;;;;5134148;27;20436;-72
2021/07/13 05:02:07;;;;;;;4.68;3.20;;;;;;;;;;5134235;27;20498;-73
2021/07/13 05:04:33;;;;;;;7.47;3.28;;;;;;;;;;5133893;27;20023;-72
2021/07/13 05:06:59;;;;;;;6.75;3.50;;;;;;;;;;5133971;27;20072;-73
2021/07/13 05:09:26;;;;;;;6.60;3.40;;;;;;;;;;5133880;27;20027;-73
2021/07/13 05:11:52;;;;;;;12.82;3.20;;;;;;;;;;5134002;27;20019;-73
2021/07/13 05:14:18;;;;;;;7.07;3.33;;;;;;;;;;5133722;27;20031;-73
2021/07/13 05:16:44;;;;;;;10.90;3.50;;;;;;;;;;5133698;27;20047;-72
2021/07/13 05:19:13;;;;;;;6.68;3.15;;;;;;;;;;5133970;27;20515;-73
2021/07/13 05:21:41;;;;;;;15.73;3.20;;;;;;;;;;5132385;28;20114;-74
2021/07/13 05:24:07;;;;;;;6.18;2.75;;;;;;;;;;5133602;27;20023;-73
2021/07/13 05:26:33;;;;;;;3.83;2.88;;;;;;;;;;5133591;27;20501;-74
2021/07/13 05:29:02;;;;;;;8.00;3.33;;;;;;;;;;5133827;27;20425;-71
2021/07/13 05:31:28;;;;;;;4.72;3.08;;;;;;;;;;5133948;27;20027;-72
2021/07/13 05:33:57;;;;;;;15.48;4.03;;;;;;;;;;5134206;27;20030;-72
2021/07/13 05:36:23;;;;;;;7.85;3.88;;;;;;;;;;5137809;27;20027;-72
2021/07/13 05:38:49;;;;;;;8.70;4.53;;;;;;;;;;5137836;27;20486;-73
2021/07/13 05:41:15;;;;;;;16.58;5.05;;;;;;;;;;5135330;27;20072;-73
2021/07/13 05:43:42;;;;;;;8.68;3.60;;;;;;;;;;5137065;27;20467;-72
2021/07/13 05:46:08;;;;;;;12.07;3.60;;;;;;;;;;5137625;27;20058;-72
2021/07/13 05:48:34;;;;;;;5.85;3.20;;;;;;;;;;5137588;27;20094;-72
2021/07/13 05:51:00;;;;;;;9.52;3.50;;;;;;;;;;5137642;27;20486;-73
2021/07/13 05:53:26;;;;;;;5.22;2.70;;;;;;;;;;5137504;27;20066;-73
2021/07/13 05:55:52;;;;;;;6.43;3.08;;;;;;;;;;5136298;27;20058;-72
2021/07/13 05:58:20;;;;;;;6.10;3.20;;;;;;;;;;5137785;27;20026;-72
2021/07/13 06:00:47;;;;;;;4.82;2.85;;;;;;;;;;5137502;27;20057;-73
2021/07/13 06:03:13;;;;;;;4.20;2.95;;;;;;;;;;5137663;27;20019;-72
2021/07/13 06:05:39;;;;;;;4.80;3.05;;;;;;;;;;5137605;27;20100;-72
2021/07/13 06:08:05;;;;;;;9.88;3.15;;;;;;;;;;5137570;27;20051;-72
2021/07/13 06:10:31;;;;;;;6.20;3.70;;;;;;;;;;5137414;27;20034;-72
2021/07/13 06:12:57;;;;;;;7.95;3.60;;;;;;;;;;5137283;27;20025;-73
2021/07/13 06:15:23;;;;;;;9.30;3.65;;;;;;;;;;5137197;27;20043;-72
2021/07/13 06:17:49;;;;;;;7.05;3.38;;;;;;;;;;5137544;27;20027;-73
2021/07/13 06:20:15;;;;;;;11.82;3.50;;;;;;;;;;5137293;27;20043;-72
2021/07/13 06:22:42;;;;;;;11.38;3.70;;;;;;;;;;5137360;27;20019;-72
2021/07/13 06:25:08;;;;;;;7.55;3.72;;;;;;;;;;5137282;27;20031;-72
2021/07/13 06:27:34;;;;;;;12.85;4.22;;;;;;;;;;5137195;27;20026;-73
2021/07/13 06:30:01;;;;;;;9.02;3.17;;;;;;;;;;5137113;27;20035;-72
2021/07/13 06:32:27;;;;;;;14.05;4.60;;;;;;;;;;5137027;27;20020;-73
2021/07/13 06:34:53;;;;;;;7.85;3.05;;;;;;;;;;5136643;27;20034;-73
2021/07/13 06:37:19;;;;;;;5.00;2.60;;;;;;;;;;5136952;27;20467;-73
2021/07/13 06:39:45;;;;;;;10.02;3.00;;;;;;;;;;5136974;27;20023;-73
2021/07/13 06:42:11;;;;;;;13.45;2.83;;;;;;;;;;5136781;27;20110;-73
2021/07/13 06:44:37;;;;;;;10.10;2.80;;;;;;;;;;5136559;27;20020;-72
2021/07/13 06:47:03;;;;;;;9.32;2.88;;;;;;;;;;5136849;27;20027;-73
2021/07/13 06:49:29;;;;;;;10.90;2.78;;;;;;;;;;5136917;27;20416;-71
2021/07/13 06:51:58;;;;;;;8.30;2.58;;;;;;;;;;5136922;27;20027;-71
2021/07/13 06:54:24;;;;;;;6.03;2.85;;;;;;;;;;5136502;27;20054;-72
2021/07/13 06:56:50;;;;;;;9.02;3.30;;;;;;;;;;5136771;27;20022;-71
2021/07/13 06:59:16;;;;;;;9.05;3.55;;;;;;;;;;5136669;27;20391;-71
2021/07/13 07:01:42;;;;;;;7.70;3.08;;;;;;;;;;5136377;27;20019;-71
2021/07/13 07:04:08;;;;;;;9.60;2.90;;;;;;;;;;5136443;27;20027;-71
2021/07/13 07:06:34;;;;;;;11.05;3.35;;;;;;;;;;5136267;27;20107;-71
2021/07/13 07:09:00;;;;;;;7.55;3.63;;;;;;;;;;5134730;27;20027;-71
2021/07/13 07:11:26;;;;;;;8.82;2.90;;;;;;;;;;5136161;27;20019;-72
2021/07/13 07:13:52;;;;;;;4.95;2.42;;;;;;;;;;5136083;27;20023;-71
2021/07/13 07:16:18;;;;;;;4.68;2.80;;;;;;;;;;5135686;27;20074;-71
2021/07/13 07:18:44;;;;;;;4.03;2.70;;;;;;;;;;5136196;27;20023;-71
2021/07/13 07:21:11;;;;;;;5.63;2.72;;;;;;;;;;5135999;27;20058;-71
2021/07/13 07:23:37;;;;;;;6.97;2.55;;;;;;;;;;5135612;27;20027;-70
2021/07/13 07:26:04;;;;;;;8.32;3.10;;;;;;;;;;5135783;27;20072;-71
2021/07/13 07:28:30;;;;;;;7.07;2.50;;;;;;;;;;5135809;27;20023;-70
2021/07/13 07:30:56;;;;;;;13.70;2.78;;;;;;;;;;5135765;27;20026;-71
2021/07/13 07:33:25;;;;;;;9.60;2.72;;;;;;;;;;5135507;27;20471;-71
2021/07/13 07:35:51;;;;;;;8.18;2.33;;;;;;;;;;5135434;27;20483;-71
2021/07/13 07:38:17;;;;;;;7.07;2.80;;;;;;;;;;5135602;27;20482;-71
2021/07/13 07:40:44;;;;;;;5.80;2.38;;;;;;;;;;5135316;27;20111;-71
2021/07/13 07:43:10;;;;;;;4.93;2.95;;;;;;;;;;5135684;27;20096;-71
2021/07/13 07:45:36;;;;;;;8.38;2.97;;;;;;;;;;5135626;27;20030;-70
2021/07/13 07:48:03;;;;;;;3.25;2.58;;;;;;;;;;5135363;27;20027;-70
2021/07/13 07:50:29;;;;;;;4.75;2.80;;;;;;;;;;5135426;27;20469;-70
2021/07/13 07:52:55;;;;;;;8.25;2.85;;;;;;;;;;5135527;27;20076;-70
2021/07/13 07:55:23;;;;;;;4.95;2.60;;;;;;;;;;5135428;27;20038;-70
2021/07/13 07:57:49;;;;;;;5.93;2.60;;;;;;;;;;5134242;27;20029;-71
2021/07/13 08:00:17;;;;;;;6.75;2.50;;;;;;;;;;5135439;27;20029;-70
2021/07/13 08:02:43;;;;;;;7.50;2.78;;;;;;;;;;5135184;27;20352;-70
2021/07/13 08:05:09;;;;;;;9.65;2.60;;;;;;;;;;5135203;27;20072;-71
2021/07/13 08:07:36;;;;;;;7.50;2.80;;;;;;;;;;5135132;27;20023;-71
2021/07/13 08:10:03;;;;;;;4.25;2.55;;;;;;;;;;5135143;27;20023;-72
2021/07/13 08:12:29;;;;;;;4.43;2.58;;;;;;;;;;5134798;27;20015;-69
2021/07/13 08:14:55;;;;;;;6.50;2.92;;;;;;;;;;5134466;27;20365;-71
2021/07/13 08:17:21;;;;;;;4.95;2.75;;;;;;;;;;5134914;27;20028;-71
2021/07/13 08:19:47;;;;;;;5.93;2.70;;;;;;;;;;5135085;27;20543;-71
2021/07/13 08:22:14;;;;;;;7.28;2.83;;;;;;;;;;5134917;27;20064;-71
2021/07/13 08:24:40;;;;;;;7.47;2.60;;;;;;;;;;5134681;27;20035;-71
2021/07/13 08:27:08;;;;;;;7.80;2.53;;;;;;;;;;5134566;27;20486;-71
2021/07/13 08:29:36;;;;;;;9.75;3.28;;;;;;;;;;5132932;27;20023;-71
2021/07/13 08:32:02;;;;;;;7.50;2.50;;;;;;;;;;5131888;27;20015;-72
2021/07/13 08:34:29;;;;;;;6.05;2.60;;;;;;;;;;5133711;27;20023;-71
2021/07/13 08:36:56;;;;;;;11.23;2.80;;;;;;;;;;5134678;27;20072;-71
2021/07/13 08:39:22;;;;;;;6.63;2.45;;;;;;;;;;5134675;27;20431;-71
2021/07/13 08:41:49;;;;;;;9.23;2.75;;;;;;;;;;5134715;27;20360;-71
2021/07/13 08:44:15;;;;;;;7.25;2.50;;;;;;;;;;5134606;27;20421;-71
2021/07/13 08:46:41;;;;;;;9.25;2.45;;;;;;;;;;5134513;27;20538;-71
2021/07/13 08:49:09;;;;;;;7.13;2.50;;;;;;;;;;5134645;27;20380;-70
2021/07/13 08:51:35;;;;;;;9.23;3.33;;;;;;;;;;5134830;27;20435;-71
2021/07/13 08:54:02;;;;;;;6.63;2.60;;;;;;;;;;5134360;27;20058;-71
2021/07/13 08:56:28;;;;;;;7.35;2.67;;;;;;;;;;5134647;27;20421;-70
2021/07/13 08:58:54;;;;;;;18.85;3.08;;;;;;;;;;5134430;27;20062;-70
2021/07/13 09:01:21;;;;;;;5.20;2.58;;;;;;;;;;5134479;27;20026;-71
2021/07/13 09:03:54;;;;;;;6.90;2.38;;;;;;;;;;5134257;27;20500;-70
2021/07/13 09:06:20;;;;;;;5.65;2.28;;;;;;;;;;5134481;27;20034;-71
2021/07/13 09:08:46;;;;;;;4.57;2.63;;;;;;;;;;5134059;27;20071;-72
2021/07/13 09:11:13;;;;;;;10.25;2.67;;;;;;;;;;5134390;27;20019;-71
2021/07/13 09:13:39;;;;;;;11.65;2.85;;;;;;;;;;5134006;27;20106;-71
2021/07/13 09:16:06;;;;;;;4.32;2.30;;;;;;;;;;5134095;27;20491;-71
2021/07/13 09:18:37;;;;;;;4.45;2.50;;;;;;;;;;5134106;27;20023;-71
2021/07/13 09:21:13;;;;;;;6.82;2.63;;;;;;;;;;5134066;27;20072;-71
2021/07/13 09:23:59;;;;;;;5.63;2.95;;;;;;;;;;5134039;27;20094;-71
2021/07/13 09:26:38;;;;;;;3.58;2.33;;;;;;;;;;5134173;27;20011;-71
2021/07/13 09:29:04;;;;;;;14.40;3.00;;;;;;;;;;5133831;27;20098;-71
2021/07/13 09:31:30;;;;;;;30.67;3.45;;;;;;;;;;5132519;28;20068;-71
2021/07/13 09:33:56;;;;;;;6.45;2.70;;;;;;;;;;5134011;27;20027;-71
2021/07/13 09:36:22;;;;;;;5.72;2.58;;;;;;;;;;5134011;27;20122;-71
2021/07/13 09:38:54;;;;;;;6.13;2.40;;;;;;;;;;5134003;27;20058;-71
2021/07/13 09:41:36;;;;;;;9.20;2.30;;;;;;;;;;5134301;27;20020;-71
2021/07/13 09:44:10;;;;;;;4.88;2.20;;;;;;;;;;5133928;27;20039;-71
2021/07/13 09:46:36;;;;;;;5.60;2.53;;;;;;;;;;5134220;27;20023;-71
2021/07/13 09:49:41;;;;;;;8.27;2.65;;;;;;;;;;5134004;27;20436;-71
2021/07/13 09:52:07;;;;;;;3.95;2.40;;;;;;;;;;5070785;28;20032;-71
2021/07/13 09:54:33;;;;;;;14.68;2.70;;;;;;;;;;5070743;28;20053;-71
2021/07/13 09:57:00;;;;;;;12.25;2.83;;;;;;;;;;5100740;27;20455;-72
2021/07/13 09:59:26;;;;;;;4.00;2.53;;;;;;;;;;5134063;27;20394;-72
2021/07/13 10:01:52;;;;;;;7.35;2.45;;;;;;;;;;5133879;27;20088;-72
2021/07/13 10:04:19;;;;;;;6.47;2.63;;;;;;;;;;5133570;27;20031;-71
2021/07/13 10:06:48;;;;;;;8.48;2.47;;;;;;;;;;5133912;27;20020;-71
2021/07/13 10:09:14;;;;;;;5.32;2.28;;;;;;;;;;5133877;27;20394;-71
2021/07/13 10:11:41;;;;;;;3.40;2.13;;;;;;;;;;5133648;27;20058;-71
2021/07/13 10:14:08;;;;;;;4.63;2.58;;;;;;;;;;5133461;27;20031;-71
2021/07/13 10:16:34;;;;;;;6.40;2.63;;;;;;;;;;5133600;27;20490;-71
2021/07/13 10:19:00;;;;;;;4.82;2.33;;;;;;;;;;5133573;27;20023;-71
2021/07/13 10:21:27;;;;;;;9.88;2.70;;;;;;;;;;5135215;27;20118;-72
2021/07/13 10:23:53;;;;;;;6.07;2.75;;;;;;;;;;5137354;27;20028;-71
2021/07/13 10:26:38;;;;;;;10.65;2.80;;;;;;;;;;5137378;27;20034;-71
2021/07/13 10:29:24;;;;;;;9.13;2.60;;;;;;;;;;5136523;27;20031;-70
2021/07/13 10:31:50;;;;;;;8.63;2.75;;;;;;;;;;5136930;27;20023;-70
2021/07/13 10:34:36;;;;;;;8.82;2.30;;;;;;;;;;5136768;27;20073;-71
2021/07/13 10:37:20;;;;;;;4.57;2.15;;;;;;;;;;5137012;27;20494;-71
2021/07/13 10:39:49;;;;;;;5.18;2.45;;;;;;;;;;5136686;27;20019;-70
2021/07/13 10:42:35;;;;;;;4.63;2.50;;;;;;;;;;5136747;27;20027;-70
2021/07/13 10:45:19;;;;;;;8.13;2.63;;;;;;;;;;5136603;27;20031;-71
2021/07/13 10:48:00;;;;;;;9.30;2.60;;;;;;;;;;5136819;27;20084;-69
2021/07/13 10:50:32;;;;;;;8.32;2.35;;;;;;;;;;5136704;27;20379;-71
2021/07/13 10:52:58;;;;;;;5.68;2.35;;;;;;;;;;5135279;27;20015;-70
2021/07/13 10:55:33;;;;;;;6.65;2.50;;;;;;;;;;5136505;27;20062;-70
2021/07/13 10:58:14;;;;;;;10.20;2.47;;;;;;;;;;5136641;27;20034;-70
2021/07/13 11:03:39;;;;;;;6.28;2.40;;;;;;;;;;5136354;27;20031;-71
2021/07/13 11:06:05;;;;;;;4.15;2.50;;;;;;;;;;5127833;27;20074;-71
2021/07/13 11:08:52;;;;;;;8.65;2.35;;;;;;;;;;5136466;27;20467;-71
2021/07/13 11:11:28;;;;;;;8.95;2.72;;;;;;;;;;5136615;27;20100;-71
2021/07/13 11:13:57;;;;;;;5.80;2.35;;;;;;;;;;5136370;27;20046;-71
2021/07/13 11:16:24;;;;;;;5.90;2.20;;;;;;;;;;5135829;27;20039;-70
2021/07/13 11:18:51;;;;;;;6.55;2.38;;;;;;;;;;5136369;27;20027;-70
2021/07/13 11:21:20;;;;;;;6.05;2.25;;;;;;;;;;5136016;27;20588;-70
2021/07/13 11:23:50;;;;;;;6.30;2.33;;;;;;;;;;5136368;27;20059;-70
2021/07/13 11:26:16;;;;;;;10.75;2.17;;;;;;;;;;5134849;27;20023;-70
2021/07/13 11:28:47;;;;;;;6.75;2.47;;;;;;;;;;5135991;27;20034;-71
2021/07/13 11:31:19;;;;;;;5.50;2.13;;;;;;;;;;5135763;27;20030;-71
2021/07/13 11:33:59;;;;;;;15.10;2.40;;;;;;;;;;5135915;27;20026;-71
2021/07/13 11:36:29;;;;;;;7.25;2.20;;;;;;;;;;5135462;27;20118;-71
2021/07/13 11:38:55;;;;;;;6.95;2.38;;;;;;;;;;5136071;27;20463;-71
2021/07/13 11:41:21;;;;;;;8.30;2.22;;;;;;;;;;5135800;27;20031;-71
2021/07/13 11:43:52;;;;;;;6.32;1.80;;;;;;;;;;5135811;27;20368;-71
2021/07/13 11:46:25;;;;;;;4.57;2.20;;;;;;;;;;5135718;27;20023;-70
2021/07/13 11:49:07;;;;;;;8.32;2.10;;;;;;;;;;5135519;27;20023;-73
2021/07/13 11:51:36;;;;;;;8.18;2.20;;;;;;;;;;5132332;27;20023;-73
2021/07/13 11:54:04;;;;;;;4.15;2.03;;;;;;;;;;5132178;27;20463;-73
2021/07/13 11:56:30;;;;;;;3.55;2.20;;;;;;;;;;5133494;27;20050;-73
2021/07/13 11:58:58;;;;;;;13.05;3.08;;;;;;;;;;5135089;27;20375;-71
2021/07/13 12:01:26;;;;;;;4.38;2.42;;;;;;;;;;5135178;27;20405;-71
2021/07/13 12:03:53;;;;;;;7.63;2.20;;;;;;;;;;5114726;27;20027;-71
2021/07/13 12:06:21;;;;;;;7.07;2.25;;;;;;;;;;5114025;28;20024;-72
2021/07/13 12:08:54;;;;;;;7.45;2.47;;;;;;;;;;5114442;28;20029;-71
2021/07/13 12:11:30;;;;;;;5.97;2.40;;;;;;;;;;5114477;28;20548;-71
2021/07/13 12:13:57;;;;;;;9.65;2.30;;;;;;;;;;5114234;28;20440;-71
2021/07/13 12:16:29;;;;;;;5.85;2.13;;;;;;;;;;5114088;28;20126;-71
2021/07/13 12:18:58;;;;;;;5.47;2.30;;;;;;;;;;5114289;28;20038;-70
2021/07/13 12:21:24;;;;;;;3.97;2.28;;;;;;;;;;5113692;28;20069;-70
2021/07/13 12:23:51;;;;;;;10.23;2.20;;;;;;;;;;5113735;27;20039;-71
2021/07/13 12:26:28;;;;;;;4.15;2.17;;;;;;;;;;5113936;28;20058;-71
2021/07/13 12:29:01;;;;;;;9.50;2.45;;;;;;;;;;5113857;28;20065;-71
2021/07/13 12:31:28;;;;;;;13.50;2.40;;;;;;;;;;5114256;28;20020;-72
2021/07/13 12:33:56;;;;;;;8.25;2.13;;;;;;;;;;5114075;28;20034;-71
2021/07/13 12:36:29;;;;;;;7.70;2.20;;;;;;;;;;5113747;28;20077;-71
2021/07/13 12:38:56;;;;;;;8.77;2.65;;;;;;;;;;5113781;28;20020;-70
2021/07/13 12:41:26;;;;;;;5.75;2.28;;;;;;;;;;5113707;28;20020;-71
2021/07/13 12:43:52;;;;;;;4.38;2.10;;;;;;;;;;5112737;28;20019;-71
2021/07/13 12:46:28;;;;;;;7.10;2.13;;;;;;;;;;5112583;28;20430;-72
2021/07/13 12:48:54;;;;;;;8.32;2.00;;;;;;;;;;5111364;28;20023;-73
2021/07/13 12:51:30;;;;;;;8.63;2.33;;;;;;;;;;5112013;28;20096;-71
2021/07/13 12:54:08;;;;;;;7.50;2.28;;;;;;;;;;5113795;28;20020;-71
2021/07/13 12:56:35;;;;;;;6.20;2.45;;;;;;;;;;5113591;28;21057;-71
2021/07/13 12:59:04;;;;;;;6.60;2.40;;;;;;;;;;5112427;28;20103;-72
2021/07/13 13:01:31;;;;;;;8.95;2.25;;;;;;;;;;5113780;28;20031;-72
2021/07/13 13:04:12;;;;;;;3.75;2.20;;;;;;;;;;5112344;28;20048;-70
2021/07/13 13:06:39;;;;;;;5.03;2.00;;;;;;;;;;5113389;28;20024;-72
2021/07/13 13:09:12;;;;;;;5.85;2.40;;;;;;;;;;5113402;28;20024;-69
2021/07/13 13:11:40;;;;;;;4.85;2.10;;;;;;;;;;5113538;28;20034;-69
2021/07/13 13:14:08;;;;;;;7.85;2.55;;;;;;;;;;5113426;28;20576;-69
2021/07/13 13:16:36;;;;;;;7.15;2.38;;;;;;;;;;5113639;28;20052;-69
2021/07/13 14:15:41;;;;;;;13.30;2.83;;;28.90;50.30;;;;;;5070507;28;20909;-69
2021/07/13 14:18:07;;;;;;;45.55;4.07;;;28.90;51.40;;;;;;5070392;28;20067;-69
2021/07/13 14:20:33;;;;;;;13.00;2.97;;;28.90;52.00;;;;;;5070302;28;20025;-69
2021/07/13 14:22:58;;;;;;;8.80;2.97;;;28.90;52.40;;;;;;5070271;28;20078;-69
2021/07/13 14:25:26;;;;;;;7.30;2.83;;;28.90;53.00;;;;;;5070060;28;20025;-69
2021/07/13 14:27:52;;;;;;;9.40;2.88;;;29.00;53.10;;;;;;5070032;28;20029;-68
2021/07/13 14:30:18;;;;;;;7.43;3.15;;;29.00;52.80;;;;;;5070082;28;20482;-69
2021/07/13 14:32:45;;;;;;;6.55;2.60;;;29.10;52.40;;;;;;5069856;28;20029;-68
2021/07/13 14:35:11;;;;;;;8.77;2.47;;;29.10;52.60;;;;;;5070032;28;20029;-69
2021/07/13 14:37:40;;;;;;;7.85;2.67;;;29.10;51.90;;;;;;5070036;28;20024;-72
2021/07/13 14:40:07;;;;;;;6.38;2.50;;;29.10;51.90;;;;;;5070111;28;20071;-71
2021/07/13 14:42:33;;;;;;;9.00;3.03;;;29.10;51.80;;;;;;5069896;28;20021;-71
2021/07/13 14:44:59;;;;;;;8.93;2.60;;;29.20;51.60;;;;;;5069694;28;20131;-70
2021/07/13 14:47:24;;;;;;;6.97;2.38;;;29.20;51.40;;;;;;5070090;28;20025;-69
2021/07/13 14:49:50;;;;;;;4.53;2.67;;;29.20;51.70;;;;;;5069701;28;20029;-69
2021/07/13 14:52:16;;;;;;;5.07;2.58;;;29.30;52.00;;;;;;5069394;28;20020;-67
2021/07/13 14:54:43;;;;;;;5.18;2.50;;;29.30;52.10;;;;;;5069891;28;20040;-67
2021/07/13 14:57:09;;;;;;;8.88;3.03;;;29.20;51.60;;;;;;5069852;28;20075;-68
2021/07/13 14:59:35;;;;;;;5.40;2.67;;;29.30;51.70;;;;;;5069432;28;20432;-66
2021/07/13 15:02:02;;;;;;;5.10;2.58;;;29.30;51.80;;;;;;5068402;28;20474;-67
2021/07/13 15:04:28;;;;;;;6.80;2.60;;;29.20;51.80;;;;;;5069188;28;20021;-67
2021/07/13 15:06:53;;;;;;;4.72;2.65;;;29.20;52.10;;;;;;5068048;28;20032;-69
2021/07/13 15:09:19;;;;;;;4.18;2.53;;;29.20;52.00;;;;;;5069048;28;20104;-68
2021/07/13 15:11:47;;;;;;;4.75;2.42;;;29.20;51.80;;;;;;5069254;28;20057;-68
2021/07/13 15:14:13;;;;;;;3.60;2.60;;;29.20;51.50;;;;;;5067106;28;20110;-68
2021/07/13 15:16:39;;;;;;;8.32;2.20;;;29.10;51.20;;;;;;5068315;28;20025;-68
2021/07/13 15:19:08;;;;;;;6.63;2.53;;;29.10;51.10;;;;;;5068462;28;20072;-67
2021/07/13 15:21:36;;;;;;;8.60;3.00;;;29.10;51.00;;;;;;5068854;28;20031;-67
2021/07/13 15:24:04;;;;;;;10.18;2.70;;;29.10;51.10;;;;;;5068867;28;20024;-69
2021/07/13 15:26:29;;;;;;;9.43;2.97;;;29.20;50.80;;;;;;5057616;28;20465;-68
2021/07/13 15:28:57;;;;;;;11.05;2.83;;;29.10;50.80;;;;;;5053686;28;20044;-68
2021/07/13 15:31:23;;;;;;;5.18;2.45;;;29.10;51.00;;;;;;5053941;28;20504;-67
2021/07/13 15:33:49;;;;;;;14.60;2.80;;;29.10;51.70;;;;;;5055415;28;20033;-67